sensor_id;sensor_type;location;lat;lon;timestamp;pressure;altitude;pressure_sealevel;temperature
76381;BMP280;65202;52.520;10.528;2023-11-21T00:02:27;100394.34;;;9.32
76381;BMP280;65202;52.520;10.528;2023-11-21T00:04:55;100392.19;;;9.39
76381;BMP280;65202;52.520;10.528;2023-11-21T00:07:22;100390.34;;;9.35
76381;BMP280;65202;52.520;10.528;2023-11-21T00:09:49;100398.75;;;9.37
76381;BMP280;65202;52.520;10.528;2023-11-21T00:12:16;100394.09;;;9.26
76381;BMP280;65202;52.520;10.528;2023-11-21T00:14:44;100391.09;;;9.33
76381;BMP280;65202;52.520;10.528;2023-11-21T00:17:11;100402.63;;;9.31
76381;BMP280;65202;52.520;10.528;2023-11-21T00:19:39;100405.72;;;9.25
76381;BMP280;65202;52.520;10.528;2023-11-21T00:22:06;100400.09;;;9.29
76381;BMP280;65202;52.520;10.528;2023-11-21T00:24:34;100393.50;;;9.31
76381;BMP280;65202;52.520;10.528;2023-11-21T00:27:02;100403.34;;;9.28
76381;BMP280;65202;52.520;10.528;2023-11-21T00:29:29;100400.34;;;9.35
76381;BMP280;65202;52.520;10.528;2023-11-21T00:31:56;100407.63;;;9.31
76381;BMP280;65202;52.520;10.528;2023-11-21T00:34:23;100400.28;;;9.34
76381;BMP280;65202;52.520;10.528;2023-11-21T00:36:51;100406.91;;;9.33
76381;BMP280;65202;52.520;10.528;2023-11-21T00:39:18;100406.72;;;9.29
76381;BMP280;65202;52.520;10.528;2023-11-21T00:41:45;100413.00;;;9.21
76381;BMP280;65202;52.520;10.528;2023-11-21T00:44:12;100404.47;;;9.35
76381;BMP280;65202;52.520;10.528;2023-11-21T00:46:40;100416.50;;;9.24
76381;BMP280;65202;52.520;10.528;2023-11-21T00:49:07;100419.34;;;9.32
76381;BMP280;65202;52.520;10.528;2023-11-21T00:51:34;100416.38;;;9.21
76381;BMP280;65202;52.520;10.528;2023-11-21T00:54:02;100414.22;;;9.29
76381;BMP280;65202;52.520;10.528;2023-11-21T00:56:30;100424.00;;;9.24
76381;BMP280;65202;52.520;10.528;2023-11-21T00:58:57;100417.50;;;9.28
76381;BMP280;65202;52.520;10.528;2023-11-21T01:01:24;100414.16;;;9.27
76381;BMP280;65202;52.520;10.528;2023-11-21T01:03:51;100417.50;;;9.28
76381;BMP280;65202;52.520;10.528;2023-11-21T01:06:19;100410.78;;;9.27
76381;BMP280;65202;52.520;10.528;2023-11-21T01:08:46;100421.38;;;9.21
76381;BMP280;65202;52.520;10.528;2023-11-21T01:11:14;100420.25;;;9.15
76381;BMP280;65202;52.520;10.528;2023-11-21T01:13:42;100427.09;;;9.19
76381;BMP280;65202;52.520;10.528;2023-11-21T01:16:09;100430.38;;;9.18
76381;BMP280;65202;52.520;10.528;2023-11-21T01:18:36;100429.25;;;9.11
76381;BMP280;65202;52.520;10.528;2023-11-21T01:21:04;100430.44;;;9.19
76381;BMP280;65202;52.520;10.528;2023-11-21T01:23:32;100432.53;;;9.10
76381;BMP280;65202;52.520;10.528;2023-11-21T01:25:59;100430.50;;;9.21
76381;BMP280;65202;52.520;10.528;2023-11-21T01:28:26;100436.22;;;9.18
76381;BMP280;65202;52.520;10.528;2023-11-21T01:30:53;100442.09;;;9.19
76381;BMP280;65202;52.520;10.528;2023-11-21T01:33:23;100440.66;;;9.24
76381;BMP280;65202;52.520;10.528;2023-11-21T01:35:52;100443.66;;;9.17
76381;BMP280;65202;52.520;10.528;2023-11-21T01:38:21;100448.91;;;9.23
76381;BMP280;65202;52.520;10.528;2023-11-21T01:40:49;100450.63;;;9.24
76381;BMP280;65202;52.520;10.528;2023-11-21T01:43:16;100445.34;;;9.18
76381;BMP280;65202;52.520;10.528;2023-11-21T01:45:44;100443.91;;;9.23
76381;BMP280;65202;52.520;10.528;2023-11-21T01:48:12;100447.91;;;9.19
76381;BMP280;65202;52.520;10.528;2023-11-21T01:50:41;100447.91;;;9.19
76381;BMP280;65202;52.520;10.528;2023-11-21T01:53:08;100452.19;;;9.22
76381;BMP280;65202;52.520;10.528;2023-11-21T01:55:39;100457.34;;;9.25
76381;BMP280;65202;52.520;10.528;2023-11-21T01:58:08;100454.75;;;9.23
76381;BMP280;65202;52.520;10.528;2023-11-21T02:00:35;100460.34;;;9.18
76381;BMP280;65202;52.520;10.528;2023-11-21T02:03:05;100468.56;;;9.15
76381;BMP280;65202;52.520;10.528;2023-11-21T02:05:34;100470.28;;;9.16
76381;BMP280;65202;52.520;10.528;2023-11-21T02:08:02;100462.19;;;9.22
76381;BMP280;65202;52.520;10.528;2023-11-21T02:10:30;100471.47;;;9.24
76381;BMP280;65202;52.520;10.528;2023-11-21T02:12:58;100469.25;;;9.30
76381;BMP280;65202;52.520;10.528;2023-11-21T02:15:27;100466.88;;;9.33
76381;BMP280;65202;52.520;10.528;2023-11-21T02:17:56;100468.78;;;9.20
76381;BMP280;65202;52.520;10.528;2023-11-21T02:20:25;100463.06;;;9.22
76381;BMP280;65202;52.520;10.528;2023-11-21T02:22:54;100470.63;;;9.24
76381;BMP280;65202;52.520;10.528;2023-11-21T02:25:29;100467.19;;;9.22
76381;BMP280;65202;52.520;10.528;2023-11-21T02:27:59;100473.13;;;9.24
76381;BMP280;65202;52.520;10.528;2023-11-21T02:30:28;100478.75;;;9.20
76381;BMP280;65202;52.520;10.528;2023-11-21T02:32:55;100485.31;;;9.18
76381;BMP280;65202;52.520;10.528;2023-11-21T02:35:25;100482.38;;;9.26
76381;BMP280;65202;52.520;10.528;2023-11-21T02:37:53;100479.94;;;9.28
76381;BMP280;65202;52.520;10.528;2023-11-21T02:40:21;100484.72;;;9.23
76381;BMP280;65202;52.520;10.528;2023-11-21T02:42:51;100480.88;;;9.30
76381;BMP280;65202;52.520;10.528;2023-11-21T02:45:19;100479.28;;;9.32
76381;BMP280;65202;52.520;10.528;2023-11-21T02:47:51;100484.63;;;9.39
76381;BMP280;65202;52.520;10.528;2023-11-21T02:50:24;100494.28;;;9.32
76381;BMP280;65202;52.520;10.528;2023-11-21T02:52:51;100492.13;;;9.39
76381;BMP280;65202;52.520;10.528;2023-11-21T02:55:18;100494.28;;;9.32
76381;BMP280;65202;52.520;10.528;2023-11-21T02:57:46;100488.69;;;9.37
76381;BMP280;65202;52.520;10.528;2023-11-21T03:00:13;100498.56;;;9.34
76381;BMP280;65202;52.520;10.528;2023-11-21T03:02:42;100492.56;;;9.31
76381;BMP280;65202;52.520;10.528;2023-11-21T03:05:10;100494.88;;;9.26
76381;BMP280;65202;52.520;10.528;2023-11-21T03:07:38;100502.56;;;9.31
76381;BMP280;65202;52.520;10.528;2023-11-21T03:10:07;100497.31;;;9.25
76381;BMP280;65202;52.520;10.528;2023-11-21T03:12:39;100503.16;;;9.08
76381;BMP280;65202;52.520;10.528;2023-11-21T03:15:08;100502.31;;;9.25
76381;BMP280;65202;52.520;10.528;2023-11-21T03:17:35;100504.38;;;9.16
76381;BMP280;65202;52.520;10.528;2023-11-21T03:20:04;100511.28;;;9.21
76381;BMP280;65202;52.520;10.528;2023-11-21T03:22:32;100512.13;;;9.22
76381;BMP280;65202;52.520;10.528;2023-11-21T03:25:00;100517.53;;;9.31
76381;BMP280;65202;52.520;10.528;2023-11-21T03:27:27;100518.06;;;9.24
76381;BMP280;65202;52.520;10.528;2023-11-21T03:29:55;100511.59;;;9.27
76381;BMP280;65202;52.520;10.528;2023-11-21T03:32:22;100522.13;;;9.22
76381;BMP280;65202;52.520;10.528;2023-11-21T03:34:58;100527.13;;;9.22
76381;BMP280;65202;52.520;10.528;2023-11-21T03:37:26;100525.56;;;9.24
76381;BMP280;65202;52.520;10.528;2023-11-21T03:40:10;100532.91;;;9.21
76381;BMP280;65202;52.520;10.528;2023-11-21T03:42:37;100533.19;;;9.27
76381;BMP280;65202;52.520;10.528;2023-11-21T03:45:06;100537.19;;;9.23
76381;BMP280;65202;52.520;10.528;2023-11-21T03:47:33;100536.00;;;9.15
76381;BMP280;65202;52.520;10.528;2023-11-21T03:50:01;100533.00;;;9.05
76381;BMP280;65202;52.520;10.528;2023-11-21T03:52:28;100544.69;;;9.06
76381;BMP280;65202;52.520;10.528;2023-11-21T03:54:56;100541.81;;;9.16
76381;BMP280;65202;52.520;10.528;2023-11-21T03:57:23;100551.81;;;9.16
76381;BMP280;65202;52.520;10.528;2023-11-21T03:59:50;100548.47;;;9.15
76381;BMP280;65202;52.520;10.528;2023-11-21T04:02:17;100557.41;;;9.10
76381;BMP280;65202;52.520;10.528;2023-11-21T04:04:45;100566.91;;;9.17
76381;BMP280;65202;52.520;10.528;2023-11-21T04:07:12;100565.25;;;9.00
76381;BMP280;65202;52.520;10.528;2023-11-21T04:09:40;100567.81;;;9.02
76381;BMP280;65202;52.520;10.528;2023-11-21T04:12:08;100568.88;;;9.07
76381;BMP280;65202;52.520;10.528;2023-11-21T04:14:38;100564.41;;;9.00
76381;BMP280;65202;52.520;10.528;2023-11-21T04:17:05;100570.72;;;9.11
76381;BMP280;65202;52.520;10.528;2023-11-21T04:19:33;100573.66;;;9.02
76381;BMP280;65202;52.520;10.528;2023-11-21T04:22:00;100574.94;;;8.94
76381;BMP280;65202;52.520;10.528;2023-11-21T04:24:27;100586.69;;;8.97
76381;BMP280;65202;52.520;10.528;2023-11-21T04:26:55;100590.91;;;8.80
76381;BMP280;65202;52.520;10.528;2023-11-21T04:29:22;100593.69;;;8.86
76381;BMP280;65202;52.520;10.528;2023-11-21T04:31:52;100595.34;;;8.86
76381;BMP280;65202;52.520;10.528;2023-11-21T04:34:19;100598.81;;;8.72
76381;BMP280;65202;52.520;10.528;2023-11-21T04:36:46;100602.25;;;8.58
76381;BMP280;65202;52.520;10.528;2023-11-21T04:39:14;100609.50;;;8.70
76381;BMP280;65202;52.520;10.528;2023-11-21T04:41:41;100610.34;;;8.70
76381;BMP280;65202;52.520;10.528;2023-11-21T04:44:08;100620.34;;;8.54
76381;BMP280;65202;52.520;10.528;2023-11-21T04:46:35;100617.53;;;8.64
76381;BMP280;65202;52.520;10.528;2023-11-21T04:49:03;100623.53;;;8.52
76381;BMP280;65202;52.520;10.528;2023-11-21T04:51:30;100626.16;;;8.37
76381;BMP280;65202;52.520;10.528;2023-11-21T04:53:59;100635.50;;;8.41
76381;BMP280;65202;52.520;10.528;2023-11-21T04:56:26;100644.25;;;8.33
76381;BMP280;65202;52.520;10.528;2023-11-21T04:58:54;100638.63;;;8.21
76381;BMP280;65202;52.520;10.528;2023-11-21T05:01:21;100645.59;;;8.13
76381;BMP280;65202;52.520;10.528;2023-11-21T05:03:48;100651.81;;;8.35
76381;BMP280;65202;52.520;10.528;2023-11-21T05:06:16;100655.47;;;8.57
76381;BMP280;65202;52.520;10.528;2023-11-21T05:08:43;100659.72;;;8.28
76381;BMP280;65202;52.520;10.528;2023-11-21T05:11:10;100675.56;;;8.60
76381;BMP280;65202;52.520;10.528;2023-11-21T05:13:37;100668.41;;;8.18
76381;BMP280;65202;52.520;10.528;2023-11-21T05:16:06;100674.63;;;7.96
76381;BMP280;65202;52.520;10.528;2023-11-21T05:18:34;100675.94;;;8.20
76381;BMP280;65202;52.520;10.528;2023-11-21T05:21:01;100686.41;;;7.99
76381;BMP280;65202;52.520;10.528;2023-11-21T05:23:29;100691.72;;;8.05
76381;BMP280;65202;52.520;10.528;2023-11-21T05:25:56;100699.72;;;7.99
76381;BMP280;65202;52.520;10.528;2023-11-21T05:28:24;100708.38;;;7.75
76381;BMP280;65202;52.520;10.528;2023-11-21T05:30:51;100703.72;;;8.12
76381;BMP280;65202;52.520;10.528;2023-11-21T05:33:33;100713.44;;;7.77
76381;BMP280;65202;52.520;10.528;2023-11-21T05:36:00;100706.84;;;7.63
76381;BMP280;65202;52.520;10.528;2023-11-21T05:38:27;100704.69;;;7.69
76381;BMP280;65202;52.520;10.528;2023-11-21T05:40:56;100714.16;;;7.60
76381;BMP280;65202;52.520;10.528;2023-11-21T05:43:25;100714.53;;;7.82
76381;BMP280;65202;52.520;10.528;2023-11-21T05:45:52;100717.56;;;8.07
76381;BMP280;65202;52.520;10.528;2023-11-21T05:48:20;100729.00;;;7.87
76381;BMP280;65202;52.520;10.528;2023-11-21T05:50:48;100730.75;;;7.59
76381;BMP280;65202;52.520;10.528;2023-11-21T05:53:16;100733.16;;;7.58
76381;BMP280;65202;52.520;10.528;2023-11-21T05:55:43;100740.97;;;7.78
76381;BMP280;65202;52.520;10.528;2023-11-21T05:58:11;100738.56;;;7.96
76381;BMP280;65202;52.520;10.528;2023-11-21T06:00:39;100746.38;;;7.86
76381;BMP280;65202;52.520;10.528;2023-11-21T06:03:06;100745.84;;;7.77
76381;BMP280;65202;52.520;10.528;2023-11-21T06:05:35;100747.06;;;7.69
76381;BMP280;65202;52.520;10.528;2023-11-21T06:08:02;100755.31;;;7.82
76381;BMP280;65202;52.520;10.528;2023-11-21T06:10:29;100757.22;;;7.57
76381;BMP280;65202;52.520;10.528;2023-11-21T06:12:57;100751.88;;;7.66
76381;BMP280;65202;52.520;10.528;2023-11-21T06:15:29;100758.13;;;7.74
76381;BMP280;65202;52.520;10.528;2023-11-21T06:17:57;100773.16;;;7.75
76381;BMP280;65202;52.520;10.528;2023-11-21T06:20:24;100768.94;;;7.89
76381;BMP280;65202;52.520;10.528;2023-11-21T06:22:51;100774.63;;;7.72
76381;BMP280;65202;52.520;10.528;2023-11-21T06:25:19;100776.00;;;7.67
76381;BMP280;65202;52.520;10.528;2023-11-21T06:27:47;100783.25;;;7.62
76381;BMP280;65202;52.520;10.528;2023-11-21T06:30:18;100778.41;;;7.65
76381;BMP280;65202;52.520;10.528;2023-11-21T06:32:47;100786.59;;;7.49
76381;BMP280;65202;52.520;10.528;2023-11-21T06:35:15;100799.47;;;7.42
76381;BMP280;65202;52.520;10.528;2023-11-21T06:37:44;100801.91;;;7.54
76381;BMP280;65202;52.520;10.528;2023-11-21T06:40:18;100798.38;;;7.51
76381;BMP280;65202;52.520;10.528;2023-11-21T06:42:46;100806.97;;;7.56
76381;BMP280;65202;52.520;10.528;2023-11-21T06:45:16;100809.38;;;7.54
76381;BMP280;65202;52.520;10.528;2023-11-21T06:47:43;100819.59;;;7.45
76381;BMP280;65202;52.520;10.528;2023-11-21T06:50:11;100823.34;;;7.67
76381;BMP280;65202;52.520;10.528;2023-11-21T06:52:39;100829.09;;;7.51
76381;BMP280;65202;52.520;10.528;2023-11-21T06:55:07;100830.91;;;7.54
76381;BMP280;65202;52.520;10.528;2023-11-21T06:57:37;100833.75;;;7.60
76381;BMP280;65202;52.520;10.528;2023-11-21T07:00:05;100836.06;;;7.43
76381;BMP280;65202;52.520;10.528;2023-11-21T07:02:36;100842.94;;;7.32
76381;BMP280;65202;52.520;10.528;2023-11-21T07:05:04;100843.13;;;7.64
76381;BMP280;65202;52.520;10.528;2023-11-21T07:07:31;100845.66;;;7.37
76381;BMP280;65202;52.520;10.528;2023-11-21T07:09:59;100846.81;;;7.56
76381;BMP280;65202;52.520;10.528;2023-11-21T07:12:33;100869.88;;;7.39
76381;BMP280;65202;52.520;10.528;2023-11-21T07:15:01;100870.00;;;7.55
76381;BMP280;65202;52.520;10.528;2023-11-21T07:17:29;100875.69;;;7.67
76381;BMP280;65202;52.520;10.528;2023-11-21T07:19:56;100877.91;;;7.77
76381;BMP280;65202;52.520;10.528;2023-11-21T07:22:24;100876.81;;;7.72
76381;BMP280;65202;52.520;10.528;2023-11-21T07:24:51;100877.94;;;7.62
76381;BMP280;65202;52.520;10.528;2023-11-21T07:27:19;100875.56;;;7.37
76381;BMP280;65202;52.520;10.528;2023-11-21T07:29:46;100892.50;;;7.42
76381;BMP280;65202;52.520;10.528;2023-11-21T07:32:15;100900.22;;;7.47
76381;BMP280;65202;52.520;10.528;2023-11-21T07:34:43;100891.31;;;7.50
76381;BMP280;65202;52.520;10.528;2023-11-21T07:37:10;100901.56;;;7.27
76381;BMP280;65202;52.520;10.528;2023-11-21T07:39:37;100907.84;;;7.35
76381;BMP280;65202;52.520;10.528;2023-11-21T07:42:08;100911.63;;;7.29
76381;BMP280;65202;52.520;10.528;2023-11-21T07:44:36;100903.03;;;7.38
76381;BMP280;65202;52.520;10.528;2023-11-21T07:47:04;100922.97;;;7.38
76381;BMP280;65202;52.520;10.528;2023-11-21T07:49:31;100933.94;;;7.27
76381;BMP280;65202;52.520;10.528;2023-11-21T07:51:59;100926.38;;;7.26
76381;BMP280;65202;52.520;10.528;2023-11-21T07:54:26;100931.81;;;7.33
76381;BMP280;65202;52.520;10.528;2023-11-21T07:56:53;100934.16;;;7.45
76381;BMP280;65202;52.520;10.528;2023-11-21T07:59:20;100936.97;;;7.63
76381;BMP280;65202;52.520;10.528;2023-11-21T08:01:48;100940.22;;;7.77
76381;BMP280;65202;52.520;10.528;2023-11-21T08:04:15;100944.97;;;7.72
76381;BMP280;65202;52.520;10.528;2023-11-21T08:06:42;100948.50;;;7.76
76381;BMP280;65202;52.520;10.528;2023-11-21T08:09:09;100949.50;;;7.65
76381;BMP280;65202;52.520;10.528;2023-11-21T08:11:37;100954.31;;;7.62
76381;BMP280;65202;52.520;10.528;2023-11-21T08:14:05;100958.31;;;7.87
76381;BMP280;65202;52.520;10.528;2023-11-21T08:16:33;100959.22;;;7.75
76381;BMP280;65202;52.520;10.528;2023-11-21T08:19:00;100958.88;;;7.69
76381;BMP280;65202;52.520;10.528;2023-11-21T08:21:28;100953.31;;;7.87
76381;BMP280;65202;52.520;10.528;2023-11-21T08:23:56;100969.44;;;7.79
76381;BMP280;65202;52.520;10.528;2023-11-21T08:26:23;100969.44;;;7.65
76381;BMP280;65202;52.520;10.528;2023-11-21T08:28:50;100971.31;;;7.54
76381;BMP280;65202;52.520;10.528;2023-11-21T08:31:26;100976.78;;;7.49
76381;BMP280;65202;52.520;10.528;2023-11-21T08:33:54;100978.78;;;7.54
76381;BMP280;65202;52.520;10.528;2023-11-21T08:36:22;100979.41;;;7.65
76381;BMP280;65202;52.520;10.528;2023-11-21T08:38:51;100981.34;;;7.83
76381;BMP280;65202;52.520;10.528;2023-11-21T08:41:21;100985.88;;;7.76
76381;BMP280;65202;52.520;10.528;2023-11-21T08:43:50;100992.94;;;7.83
76381;BMP280;65202;52.520;10.528;2023-11-21T08:46:18;100994.75;;;7.85
76381;BMP280;65202;52.520;10.528;2023-11-21T08:48:46;101004.00;;;7.73
76381;BMP280;65202;52.520;10.528;2023-11-21T08:51:14;101005.44;;;8.12
76381;BMP280;65202;52.520;10.528;2023-11-21T08:53:41;101008.88;;;7.72
76381;BMP280;65202;52.520;10.528;2023-11-21T08:56:14;101006.22;;;8.11
76381;BMP280;65202;52.520;10.528;2023-11-21T08:58:42;101011.25;;;8.39
76381;BMP280;65202;52.520;10.528;2023-11-21T09:01:09;101018.41;;;8.33
76381;BMP280;65202;52.520;10.528;2023-11-21T09:03:36;101018.91;;;8.28
76381;BMP280;65202;52.520;10.528;2023-11-21T09:06:04;101027.34;;;8.03
76381;BMP280;65202;52.520;10.528;2023-11-21T09:08:32;101027.59;;;7.93
76381;BMP280;65202;52.520;10.528;2023-11-21T09:10:59;101020.81;;;8.17
76381;BMP280;65202;52.520;10.528;2023-11-21T09:13:26;101029.25;;;8.34
76381;BMP280;65202;52.520;10.528;2023-11-21T09:15:54;101031.47;;;8.15
76381;BMP280;65202;52.520;10.528;2023-11-21T09:18:21;101034.84;;;8.03
76381;BMP280;65202;52.520;10.528;2023-11-21T09:20:49;101031.47;;;8.29
76381;BMP280;65202;52.520;10.528;2023-11-21T09:23:16;101034.25;;;8.07
76381;BMP280;65202;52.520;10.528;2023-11-21T09:25:43;101027.00;;;8.24
76381;BMP280;65202;52.520;10.528;2023-11-21T09:28:13;101035.06;;;8.34
76381;BMP280;65202;52.520;10.528;2023-11-21T09:30:40;101042.03;;;8.83
76381;BMP280;65202;52.520;10.528;2023-11-21T09:33:08;101047.81;;;8.39
76381;BMP280;65202;52.520;10.528;2023-11-21T09:35:37;101047.91;;;8.40
76381;BMP280;65202;52.520;10.528;2023-11-21T09:38:05;101061.66;;;8.34
76381;BMP280;65202;52.520;10.528;2023-11-21T09:40:37;101062.63;;;8.36
76381;BMP280;65202;52.520;10.528;2023-11-21T09:43:11;101064.69;;;8.28
76381;BMP280;65202;52.520;10.528;2023-11-21T09:45:46;101068.91;;;8.02
76381;BMP280;65202;52.520;10.528;2023-11-21T09:48:15;101076.09;;;7.98
76381;BMP280;65202;52.520;10.528;2023-11-21T09:50:44;101080.06;;;8.21
76381;BMP280;65202;52.520;10.528;2023-11-21T09:53:20;101085.22;;;8.24
76381;BMP280;65202;52.520;10.528;2023-11-21T09:55:53;101090.13;;;8.23
76381;BMP280;65202;52.520;10.528;2023-11-21T09:58:21;101093.06;;;8.30
76381;BMP280;65202;52.520;10.528;2023-11-21T10:00:53;101095.31;;;8.26
76381;BMP280;65202;52.520;10.528;2023-11-21T10:03:23;101093.88;;;8.16
76381;BMP280;65202;52.520;10.528;2023-11-21T10:05:53;101096.03;;;7.98
76381;BMP280;65202;52.520;10.528;2023-11-21T10:08:24;101101.53;;;7.92
76381;BMP280;65202;52.520;10.528;2023-11-21T10:10:59;101097.16;;;8.15
76381;BMP280;65202;52.520;10.528;2023-11-21T10:13:28;101095.63;;;8.17
76381;BMP280;65202;52.520;10.528;2023-11-21T10:15:58;101106.84;;;8.38
76381;BMP280;65202;52.520;10.528;2023-11-21T10:18:27;101108.84;;;8.16
76381;BMP280;65202;52.520;10.528;2023-11-21T10:20:54;101104.63;;;8.15
76381;BMP280;65202;52.520;10.528;2023-11-21T10:23:23;101110.50;;;8.03
76381;BMP280;65202;52.520;10.528;2023-11-21T10:25:52;101111.63;;;8.21
76381;BMP280;65202;52.520;10.528;2023-11-21T10:28:21;101118.94;;;8.05
76381;BMP280;65202;52.520;10.528;2023-11-21T10:30:48;101126.88;;;8.13
76381;BMP280;65202;52.520;10.528;2023-11-21T10:33:16;101120.66;;;8.06
76381;BMP280;65202;52.520;10.528;2023-11-21T10:38:14;101132.81;;;8.27
76381;BMP280;65202;52.520;10.528;2023-11-21T10:40:41;101130.38;;;8.15
76381;BMP280;65202;52.520;10.528;2023-11-21T10:43:09;101135.91;;;8.38
76381;BMP280;65202;52.520;10.528;2023-11-21T10:45:37;101133.25;;;8.35
76381;BMP280;65202;52.520;10.528;2023-11-21T10:48:06;101135.16;;;8.39
76381;BMP280;65202;52.520;10.528;2023-11-21T10:50:48;101138.50;;;8.12
76381;BMP280;65202;52.520;10.528;2023-11-21T10:53:15;101139.00;;;8.34
76381;BMP280;65202;52.520;10.528;2023-11-21T10:55:43;101136.28;;;8.16
76381;BMP280;65202;52.520;10.528;2023-11-21T10:58:14;101144.38;;;8.54
76381;BMP280;65202;52.520;10.528;2023-11-21T11:00:42;101146.81;;;8.25
76381;BMP280;65202;52.520;10.528;2023-11-21T11:03:12;101144.50;;;8.70
76381;BMP280;65202;52.520;10.528;2023-11-21T11:05:44;101147.63;;;8.53
76381;BMP280;65202;52.520;10.528;2023-11-21T11:08:21;101149.66;;;8.59
76381;BMP280;65202;52.520;10.528;2023-11-21T11:10:55;101153.28;;;8.36
76381;BMP280;65202;52.520;10.528;2023-11-21T11:13:22;101149.91;;;8.77
76381;BMP280;65202;52.520;10.528;2023-11-21T11:15:51;101153.63;;;8.70
76381;BMP280;65202;52.520;10.528;2023-11-21T11:18:28;101152.34;;;9.05
76381;BMP280;65202;52.520;10.528;2023-11-21T11:21:46;101157.31;;;8.76
76381;BMP280;65202;52.520;10.528;2023-11-21T11:27:54;101165.16;;;8.82
76381;BMP280;65202;52.520;10.528;2023-11-21T11:30:46;101166.13;;;8.98
76381;BMP280;65202;52.520;10.528;2023-11-21T11:36:06;101165.03;;;9.38
76381;BMP280;65202;52.520;10.528;2023-11-21T11:38:45;101161.56;;;9.50
76381;BMP280;65202;52.520;10.528;2023-11-21T11:41:24;101169.88;;;9.35
76381;BMP280;65202;52.520;10.528;2023-11-21T11:43:54;101177.63;;;9.39
76381;BMP280;65202;52.520;10.528;2023-11-21T11:46:40;101172.13;;;9.45
76381;BMP280;65202;52.520;10.528;2023-11-21T11:49:09;101184.53;;;9.00
76381;BMP280;65202;52.520;10.528;2023-11-21T11:51:36;101186.28;;;9.01
76381;BMP280;65202;52.520;10.528;2023-11-21T11:54:03;101182.13;;;8.87
76381;BMP280;65202;52.520;10.528;2023-11-21T11:56:34;101188.56;;;8.70
76381;BMP280;65202;52.520;10.528;2023-11-21T11:59:03;101192.19;;;8.89
76381;BMP280;65202;52.520;10.528;2023-11-21T12:01:33;101194.78;;;8.76
76381;BMP280;65202;52.520;10.528;2023-11-21T12:04:24;101196.31;;;8.74
76381;BMP280;65202;52.520;10.528;2023-11-21T12:07:00;101205.47;;;8.46
76381;BMP280;65202;52.520;10.528;2023-11-21T12:09:31;101202.88;;;8.72
76381;BMP280;65202;52.520;10.528;2023-11-21T12:11:59;101202.91;;;8.59
76381;BMP280;65202;52.520;10.528;2023-11-21T12:14:27;101211.06;;;8.42
76381;BMP280;65202;52.520;10.528;2023-11-21T12:16:55;101205.38;;;8.72
76381;BMP280;65202;52.520;10.528;2023-11-21T12:19:23;101213.78;;;8.60
76381;BMP280;65202;52.520;10.528;2023-11-21T12:21:50;101222.56;;;8.68
76381;BMP280;65202;52.520;10.528;2023-11-21T12:24:19;101220.00;;;8.53
76381;BMP280;65202;52.520;10.528;2023-11-21T12:26:46;101234.13;;;8.53
76381;BMP280;65202;52.520;10.528;2023-11-21T12:29:13;101241.78;;;8.56
76381;BMP280;65202;52.520;10.528;2023-11-21T12:31:40;101243.66;;;8.45
76381;BMP280;65202;52.520;10.528;2023-11-21T12:34:08;101254.63;;;8.34
76381;BMP280;65202;52.520;10.528;2023-11-21T12:36:38;101252.91;;;8.08
76381;BMP280;65202;52.520;10.528;2023-11-21T12:39:06;101252.06;;;8.07
76381;BMP280;65202;52.520;10.528;2023-11-21T12:41:36;101263.66;;;8.19
76381;BMP280;65202;52.520;10.528;2023-11-21T12:44:04;101255.41;;;8.20
76381;BMP280;65202;52.520;10.528;2023-11-21T12:46:36;101262.53;;;7.89
76381;BMP280;65202;52.520;10.528;2023-11-21T12:49:07;101267.69;;;8.30
76381;BMP280;65202;52.520;10.528;2023-11-21T12:51:34;101261.56;;;8.13
76381;BMP280;65202;52.520;10.528;2023-11-21T12:54:02;101263.25;;;8.39
76381;BMP280;65202;52.520;10.528;2023-11-21T12:56:29;101264.44;;;8.31
76381;BMP280;65202;52.520;10.528;2023-11-21T12:58:57;101270.56;;;8.11
76381;BMP280;65202;52.520;10.528;2023-11-21T13:01:26;101267.38;;;8.13
76381;BMP280;65202;52.520;10.528;2023-11-21T13:03:57;101273.63;;;8.19
76381;BMP280;65202;52.520;10.528;2023-11-21T13:06:29;101280.81;;;8.41
76381;BMP280;65202;52.520;10.528;2023-11-21T13:09:01;101290.81;;;8.28
76381;BMP280;65202;52.520;10.528;2023-11-21T13:11:34;101287.50;;;8.15
76381;BMP280;65202;52.520;10.528;2023-11-21T13:14:02;101297.44;;;8.27
76381;BMP280;65202;52.520;10.528;2023-11-21T13:16:30;101292.41;;;8.40
76381;BMP280;65202;52.520;10.528;2023-11-21T13:18:58;101293.97;;;8.25
76381;BMP280;65202;52.520;10.528;2023-11-21T13:21:26;101296.47;;;8.00
76381;BMP280;65202;52.520;10.528;2023-11-21T13:23:54;101292.81;;;8.08
76381;BMP280;65202;52.520;10.528;2023-11-21T13:26:22;101303.78;;;8.22
76381;BMP280;65202;52.520;10.528;2023-11-21T13:28:53;101306.38;;;8.24
76381;BMP280;65202;52.520;10.528;2023-11-21T13:31:20;101310.69;;;8.26
76381;BMP280;65202;52.520;10.528;2023-11-21T13:33:50;101312.00;;;8.47
76381;BMP280;65202;52.520;10.528;2023-11-21T13:36:26;101319.25;;;8.17
76381;BMP280;65202;52.520;10.528;2023-11-21T13:38:57;101317.41;;;8.15
76381;BMP280;65202;52.520;10.528;2023-11-21T13:41:25;101316.94;;;8.20
76381;BMP280;65202;52.520;10.528;2023-11-21T13:43:58;101325.09;;;8.17
76381;BMP280;65202;52.520;10.528;2023-11-21T13:46:39;101327.66;;;8.06
76381;BMP280;65202;52.520;10.528;2023-11-21T13:49:06;101332.34;;;8.40
76381;BMP280;65202;52.520;10.528;2023-11-21T13:51:37;101338.59;;;8.34
76381;BMP280;65202;52.520;10.528;2023-11-21T13:54:10;101347.06;;;8.36
76381;BMP280;65202;52.520;10.528;2023-11-21T13:56:38;101358.72;;;8.37
76381;BMP280;65202;52.520;10.528;2023-11-21T13:59:07;101353.84;;;8.25
76381;BMP280;65202;52.520;10.528;2023-11-21T14:01:55;101364.16;;;8.06
76381;BMP280;65202;52.520;10.528;2023-11-21T14:04:39;101375.38;;;7.86
76381;BMP280;65202;52.520;10.528;2023-11-21T14:07:22;101372.22;;;8.02
76381;BMP280;65202;52.520;10.528;2023-11-21T14:10:03;101372.00;;;7.73
76381;BMP280;65202;52.520;10.528;2023-11-21T14:12:33;101370.59;;;7.89
76381;BMP280;65202;52.520;10.528;2023-11-21T14:15:05;101383.16;;;7.91
76381;BMP280;65202;52.520;10.528;2023-11-21T14:17:36;101382.38;;;7.79